createdAt,value
2023-03-16T00:00:50.099Z,-4.12
2023-03-16T00:03:16.532Z,-4.15
2023-03-16T00:05:42.945Z,-4.08
2023-03-16T00:08:09.458Z,-4.14
2023-03-16T00:10:35.955Z,-4.06
2023-03-16T00:13:02.431Z,-4.30
2023-03-16T00:15:28.864Z,-4.18
2023-03-16T00:17:55.470Z,-4.16
2023-03-16T00:20:21.881Z,-4.19
2023-03-16T00:22:48.367Z,-4.21
2023-03-16T00:25:14.825Z,-4.10
2023-03-16T00:27:41.360Z,-4.20
2023-03-16T00:30:08.299Z,-4.22
2023-03-16T00:32:35.608Z,-4.32
2023-03-16T00:35:02.423Z,-4.28
2023-03-16T00:37:29.158Z,-4.38
2023-03-16T00:39:55.792Z,-4.32
2023-03-16T00:42:22.338Z,-4.33
2023-03-16T00:44:48.796Z,-4.39
2023-03-16T00:47:15.210Z,-4.45
2023-03-16T00:49:42.216Z,-4.38
2023-03-16T00:52:09.022Z,-4.46
2023-03-16T00:54:35.461Z,-4.46
2023-03-16T00:57:01.987Z,-4.46
2023-03-16T00:59:28.489Z,-4.63
2023-03-16T01:01:55.108Z,-4.63
2023-03-16T01:04:21.594Z,-4.57
2023-03-16T01:06:48.001Z,-4.55
2023-03-16T01:09:14.409Z,-4.49
2023-03-16T01:11:41.362Z,-4.55
2023-03-16T01:14:07.953Z,-4.57
2023-03-16T01:16:34.448Z,-4.62
2023-03-16T01:19:01.033Z,-4.65
2023-03-16T01:21:27.622Z,-4.58
2023-03-16T01:23:54.182Z,-4.53
2023-03-16T01:26:20.923Z,-4.63
2023-03-16T01:28:47.403Z,-4.61
2023-03-16T01:31:13.937Z,-4.62
2023-03-16T01:33:41.575Z,-4.66
2023-03-16T01:36:09.622Z,-4.71
2023-03-16T01:38:36.136Z,-4.79
2023-03-16T01:41:02.567Z,-4.73
2023-03-16T01:43:29.433Z,-4.73
2023-03-16T01:46:05.076Z,-4.81
2023-03-16T01:48:38.967Z,-4.83
2023-03-16T01:51:12.315Z,-4.89
2023-03-16T01:53:39.219Z,-4.94
2023-03-16T01:56:06.124Z,-4.85
2023-03-16T01:58:32.563Z,-4.92
2023-03-16T02:00:59.097Z,-4.97
2023-03-16T02:03:25.635Z,-5.03
2023-03-16T02:05:53.417Z,-5.03
2023-03-16T02:08:20.035Z,-5.08
2023-03-16T02:10:46.526Z,-5.00
2023-03-16T02:13:13.096Z,-5.03
2023-03-16T02:15:39.553Z,-5.12
2023-03-16T02:18:05.976Z,-5.16
2023-03-16T02:20:35.519Z,-5.15
2023-03-16T02:23:02.195Z,-5.13
2023-03-16T02:25:47.428Z,-5.10
2023-03-16T02:28:19.736Z,-5.21
2023-03-16T02:30:46.730Z,-5.20
2023-03-16T02:33:13.367Z,-5.20
2023-03-16T02:35:39.886Z,-5.20
2023-03-16T02:38:06.332Z,-5.24
2023-03-16T02:40:33.222Z,-5.31
2023-03-16T02:43:03.661Z,-5.34
2023-03-16T02:45:34.644Z,-5.25
2023-03-16T02:48:01.641Z,-5.28
2023-03-16T02:50:28.291Z,-5.30
2023-03-16T02:52:54.956Z,-5.48
2023-03-16T02:55:21.438Z,-5.38
2023-03-16T02:57:48.172Z,-5.48
2023-03-16T03:00:14.700Z,-5.42
2023-03-16T03:02:41.173Z,-5.45
2023-03-16T03:05:07.730Z,-5.60
2023-03-16T03:07:34.168Z,-5.47
2023-03-16T03:10:00.621Z,-5.58
2023-03-16T03:12:27.029Z,-5.56
2023-03-16T03:14:53.407Z,-5.60
2023-03-16T03:17:19.901Z,-5.57
2023-03-16T03:19:46.336Z,-5.48
2023-03-16T03:22:12.747Z,-5.42
2023-03-16T03:24:39.112Z,-5.33
2023-03-16T03:27:05.791Z,-5.22
2023-03-16T03:29:32.645Z,-5.20
2023-03-16T03:31:59.155Z,-5.13
2023-03-16T03:34:25.655Z,-5.12
2023-03-16T03:36:52.083Z,-5.40
2023-03-16T03:39:18.482Z,-5.22
2023-03-16T03:41:44.884Z,-5.08
2023-03-16T03:44:11.307Z,-4.88
2023-03-16T03:46:37.892Z,-4.83
2023-03-16T03:49:04.401Z,-4.77
2023-03-16T03:51:31.671Z,-4.78
2023-03-16T03:53:58.535Z,-4.62
2023-03-16T03:56:25.067Z,-4.61
2023-03-16T03:58:51.587Z,-4.50
2023-03-16T04:01:18.059Z,-4.56
2023-03-16T04:03:45.253Z,-4.52
2023-03-16T04:06:11.801Z,-4.42
2023-03-16T04:08:38.254Z,-4.37
2023-03-16T04:11:04.721Z,-4.39
2023-03-16T04:13:31.236Z,-4.36
2023-03-16T04:15:57.994Z,-4.34
2023-03-16T04:18:24.576Z,-4.37
2023-03-16T04:20:51.078Z,-4.42
2023-03-16T04:23:17.564Z,-4.52
2023-03-16T04:25:44.026Z,-4.50
2023-03-16T04:28:10.713Z,-4.52
2023-03-16T04:30:37.139Z,-4.47
2023-03-16T04:33:03.548Z,-4.43
2023-03-16T04:35:29.983Z,-4.46
2023-03-16T04:37:56.720Z,-4.58
2023-03-16T04:40:23.216Z,-4.49
2023-03-16T04:42:49.718Z,-4.31
2023-03-16T04:45:16.228Z,-4.34
2023-03-16T04:47:42.654Z,-4.40
2023-03-16T04:50:09.611Z,-4.40
2023-03-16T04:52:36.053Z,-4.51
2023-03-16T04:55:02.474Z,-4.52
2023-03-16T04:57:28.938Z,-4.46
2023-03-16T04:59:55.354Z,-4.51
2023-03-16T05:02:21.717Z,-4.53
2023-03-16T05:04:48.204Z,-4.54
2023-03-16T05:07:14.619Z,-4.51
2023-03-16T05:09:41.084Z,-4.44
2023-03-16T05:12:07.688Z,-4.45
2023-03-16T05:14:34.126Z,-4.48
2023-03-16T05:17:00.510Z,-4.49
2023-03-16T05:19:26.934Z,-4.39
2023-03-16T05:21:53.346Z,-4.41
2023-03-16T05:24:19.759Z,-4.42
2023-03-16T05:26:46.160Z,-4.60
2023-03-16T05:29:12.724Z,-4.52
2023-03-16T05:31:39.286Z,-4.48
2023-03-16T05:34:05.673Z,-4.44
2023-03-16T05:36:32.520Z,-4.47
2023-03-16T05:38:59.618Z,-4.51
2023-03-16T05:41:26.566Z,-4.51
2023-03-16T05:43:52.938Z,-4.57
2023-03-16T05:46:20.938Z,-4.47
2023-03-16T05:48:47.420Z,-4.47
2023-03-16T05:51:13.857Z,-4.46
2023-03-16T05:53:40.255Z,-4.61
2023-03-16T05:56:07.439Z,-4.46
2023-03-16T05:58:34.063Z,-4.38
2023-03-16T06:01:00.554Z,-4.38
2023-03-16T06:03:27.014Z,-4.38
2023-03-16T06:05:53.400Z,-4.41
2023-03-16T06:08:19.790Z,-4.44
2023-03-16T06:10:46.659Z,-4.38
2023-03-16T06:13:13.071Z,-4.47
2023-03-16T06:15:39.616Z,-4.24
2023-03-16T06:18:06.107Z,-4.21
2023-03-16T06:20:32.604Z,-4.16
2023-03-16T06:22:59.060Z,-4.02
2023-03-16T06:25:25.429Z,-4.03
2023-03-16T06:27:53.527Z,-3.90
2023-03-16T06:30:20.045Z,-3.85
2023-03-16T06:32:46.581Z,-3.70
2023-03-16T06:35:13.223Z,-3.73
2023-03-16T06:37:39.658Z,-3.87
2023-03-16T06:40:08.005Z,-3.78
2023-03-16T06:42:34.400Z,-3.72
2023-03-16T06:45:00.793Z,-3.60
2023-03-16T06:47:27.337Z,-3.54
2023-03-16T06:49:55.446Z,-3.55
2023-03-16T06:52:21.976Z,-3.48
2023-03-16T06:54:48.452Z,-3.50
2023-03-16T06:57:15.086Z,-3.61
2023-03-16T06:59:41.569Z,-3.66
2023-03-16T07:02:09.252Z,-3.37
2023-03-16T07:04:36.690Z,-3.38
2023-03-16T07:07:06.436Z,-3.26
2023-03-16T07:09:32.849Z,-3.29
2023-03-16T07:11:59.364Z,-3.68
2023-03-16T07:14:25.741Z,-3.70
2023-03-16T07:16:52.444Z,-3.72
2023-03-16T07:19:19.411Z,-3.59
2023-03-16T07:21:45.878Z,-3.19
2023-03-16T07:24:14.623Z,-3.03
2023-03-16T07:26:41.769Z,-2.94
2023-03-16T07:29:08.339Z,-3.00
2023-03-16T07:31:34.857Z,-2.81
2023-03-16T07:34:01.672Z,-2.74
2023-03-16T07:36:28.794Z,-2.51
2023-03-16T07:38:55.323Z,-2.61
2023-03-16T07:41:21.814Z,-2.42
2023-03-16T07:43:48.393Z,-2.36
2023-03-16T07:46:14.898Z,-2.82
2023-03-16T07:48:41.416Z,-2.82
2023-03-16T07:51:08.286Z,-2.62
2023-03-16T07:53:35.348Z,-2.75
2023-03-16T07:56:01.836Z,-2.39
2023-03-16T07:58:28.272Z,-2.58
2023-03-16T08:00:58.313Z,-2.39
2023-03-16T08:03:25.127Z,-2.48
2023-03-16T08:05:52.669Z,-2.27
2023-03-16T08:08:19.262Z,-2.17
2023-03-16T08:10:47.313Z,-2.30
2023-03-16T08:13:15.895Z,-2.54
2023-03-16T08:15:45.387Z,-2.67
2023-03-16T08:18:11.852Z,-2.46
2023-03-16T08:20:38.299Z,-2.23
2023-03-16T08:23:04.674Z,-2.19
2023-03-16T08:25:31.611Z,-2.14
2023-03-16T08:27:58.097Z,-1.94
2023-03-16T08:30:24.597Z,-1.92
2023-03-16T08:32:51.122Z,-2.11
2023-03-16T08:35:18.236Z,-1.95
2023-03-16T08:37:44.703Z,-1.69
2023-03-16T08:40:11.353Z,-1.44
2023-03-16T08:42:37.867Z,-1.86
2023-03-16T08:45:05.580Z,-1.83
2023-03-16T08:47:32.108Z,-1.77
2023-03-16T08:49:58.552Z,-1.47
2023-03-16T08:52:25.048Z,-1.53
2023-03-16T08:55:02.446Z,-1.29
2023-03-16T08:57:30.165Z,-1.30
2023-03-16T08:59:57.290Z,-1.50
2023-03-16T09:02:23.718Z,-1.15
2023-03-16T09:04:50.228Z,-1.16
2023-03-16T09:07:17.594Z,-1.33
2023-03-16T09:09:44.156Z,-1.26
2023-03-16T09:12:14.023Z,-1.29
2023-03-16T09:14:40.460Z,-1.00
2023-03-16T09:17:08.151Z,-0.71
2023-03-16T09:19:49.973Z,-1.04
2023-03-16T09:22:18.268Z,-0.43
2023-03-16T09:24:45.138Z,-0.29
2023-03-16T09:27:11.604Z,0.16
2023-03-16T09:29:38.219Z,0.38
2023-03-16T09:32:04.729Z,0.41
2023-03-16T09:34:33.340Z,0.60
2023-03-16T09:37:00.198Z,0.60
2023-03-16T09:39:26.602Z,0.35
2023-03-16T09:42:01.611Z,0.34
2023-03-16T09:44:31.242Z,0.69
2023-03-16T09:46:58.075Z,0.71
2023-03-16T09:49:24.695Z,0.89
2023-03-16T09:51:51.102Z,1.34
2023-03-16T09:54:23.228Z,1.81
2023-03-16T09:56:49.785Z,2.44
2023-03-16T09:59:16.208Z,2.88
2023-03-16T10:02:01.594Z,3.43
2023-03-16T10:04:37.831Z,2.72
2023-03-16T10:07:05.050Z,4.31
2023-03-16T10:09:36.138Z,4.93
2023-03-16T10:12:03.088Z,5.74
2023-03-16T10:14:32.508Z,5.26
2023-03-16T10:17:00.935Z,5.74
2023-03-16T10:19:30.443Z,3.91
2023-03-16T10:21:57.106Z,4.51
2023-03-16T10:24:45.069Z,5.02
2023-03-16T10:27:23.089Z,6.45
2023-03-16T10:29:49.531Z,6.53
2023-03-16T10:32:16.635Z,6.96
2023-03-16T10:34:48.699Z,7.84
2023-03-16T10:37:15.151Z,6.09
2023-03-16T10:39:41.599Z,6.30
2023-03-16T10:42:09.749Z,5.43
2023-03-16T10:44:39.267Z,5.18
2023-03-16T10:47:06.009Z,4.69
2023-03-16T10:49:36.736Z,5.82
2023-03-16T10:52:07.048Z,4.67
2023-03-16T10:54:33.973Z,4.75
2023-03-16T10:57:00.425Z,4.41
2023-03-16T10:59:33.825Z,5.83
2023-03-16T11:02:05.306Z,6.17
2023-03-16T11:04:32.455Z,6.12
2023-03-16T11:06:58.899Z,5.82
2023-03-16T11:09:32.100Z,4.96
2023-03-16T11:12:00.268Z,4.95
2023-03-16T11:14:27.401Z,6.11
2023-03-16T11:17:07.330Z,6.43
2023-03-16T11:19:34.110Z,6.39
2023-03-16T11:22:00.483Z,5.95
2023-03-16T11:24:45.372Z,4.86
2023-03-16T11:27:15.577Z,4.87
2023-03-16T11:29:46.158Z,4.61
2023-03-16T11:32:15.392Z,5.73
2023-03-16T11:34:41.947Z,6.31
2023-03-16T11:37:26.963Z,5.87
2023-03-16T11:40:12.999Z,6.08
2023-03-16T11:42:41.936Z,5.92
2023-03-16T11:45:11.290Z,6.03
2023-03-16T11:47:53.995Z,5.70
2023-03-16T11:50:25.595Z,5.19
2023-03-16T11:52:51.983Z,5.27
2023-03-16T11:55:18.890Z,5.47
2023-03-16T11:57:51.989Z,5.27
2023-03-16T12:00:20.883Z,5.42
2023-03-16T12:03:10.838Z,5.42
2023-03-16T12:05:39.705Z,5.29
2023-03-16T12:08:23.908Z,6.03
2023-03-16T12:10:53.386Z,5.88
2023-03-16T12:13:24.903Z,6.07
2023-03-16T12:15:54.888Z,6.29
2023-03-16T12:18:26.309Z,6.61
2023-03-16T12:20:57.855Z,6.33
2023-03-16T12:23:27.858Z,6.05
2023-03-16T12:25:55.792Z,5.80
2023-03-16T12:28:27.943Z,6.69
2023-03-16T12:30:54.345Z,6.10
2023-03-16T12:33:24.404Z,6.09
2023-03-16T12:35:50.796Z,6.19
2023-03-16T12:38:29.571Z,6.38
2023-03-16T12:40:58.837Z,6.50
2023-03-16T12:43:31.891Z,6.81
2023-03-16T12:46:20.863Z,6.14
2023-03-16T12:48:47.908Z,6.09
2023-03-16T12:51:14.334Z,5.93
2023-03-16T12:53:40.708Z,5.69
2023-03-16T12:56:07.263Z,5.96
2023-03-16T12:58:33.670Z,6.39
2023-03-16T13:01:00.312Z,7.01
2023-03-16T13:03:26.910Z,6.72
2023-03-16T13:05:57.378Z,6.56
2023-03-16T13:08:23.796Z,6.87
2023-03-16T13:11:03.893Z,6.92
2023-03-16T13:13:30.433Z,6.90
2023-03-16T13:16:07.820Z,6.66
2023-03-16T13:18:35.745Z,6.46
2023-03-16T13:21:13.254Z,6.78
2023-03-16T13:23:59.836Z,6.51
2023-03-16T13:26:31.230Z,6.29
2023-03-16T13:28:57.750Z,6.46
2023-03-16T13:31:24.761Z,6.57
2023-03-16T13:33:53.822Z,6.49
2023-03-16T13:36:21.688Z,6.61
2023-03-16T13:39:01.792Z,6.39
2023-03-16T13:41:29.705Z,6.46
2023-03-16T13:43:56.168Z,6.55
2023-03-16T13:46:27.748Z,6.92
2023-03-16T13:48:54.194Z,6.37
2023-03-16T13:51:21.147Z,6.24
2023-03-16T13:53:48.712Z,6.07
2023-03-16T13:56:15.278Z,6.23
2023-03-16T13:58:43.178Z,5.79
2023-03-16T14:01:36.091Z,6.22
2023-03-16T14:04:04.651Z,6.41
2023-03-16T14:06:31.442Z,6.44
2023-03-16T14:09:02.642Z,6.67
2023-03-16T14:11:29.199Z,6.75
2023-03-16T14:13:57.045Z,6.89
2023-03-16T14:16:24.487Z,6.63
2023-03-16T14:19:08.288Z,6.44
2023-03-16T14:21:34.752Z,6.68
2023-03-16T14:24:04.874Z,6.68
2023-03-16T14:26:43.720Z,6.83
2023-03-16T14:29:25.542Z,6.90
2023-03-16T14:31:52.652Z,7.05
2023-03-16T14:34:26.746Z,6.78
2023-03-16T14:36:53.179Z,6.83
2023-03-16T14:39:20.103Z,6.88
2023-03-16T14:41:50.065Z,6.76
2023-03-16T14:44:23.303Z,6.72
2023-03-16T14:46:51.364Z,6.80
2023-03-16T14:49:27.768Z,6.83
2023-03-16T14:51:55.603Z,6.79
2023-03-16T14:54:22.492Z,6.72
2023-03-16T14:56:53.638Z,6.69
2023-03-16T14:59:20.593Z,6.62
2023-03-16T15:01:47.231Z,6.72
2023-03-16T15:04:17.742Z,6.70
2023-03-16T15:06:44.148Z,6.58
2023-03-16T15:09:31.237Z,6.52
2023-03-16T15:11:57.720Z,6.40
2023-03-16T15:14:24.107Z,6.33
2023-03-16T15:16:50.487Z,6.26
2023-03-16T15:19:16.896Z,6.49
2023-03-16T15:21:43.354Z,6.56
2023-03-16T15:24:11.549Z,6.57
2023-03-16T15:26:38.006Z,6.22
2023-03-16T15:29:06.304Z,6.17
2023-03-16T15:31:32.820Z,6.03
2023-03-16T15:33:59.390Z,5.87
2023-03-16T15:36:26.517Z,5.88
2023-03-16T15:38:53.275Z,5.96
2023-03-16T15:41:19.764Z,5.95
2023-03-16T15:43:46.118Z,6.07
2023-03-16T15:46:12.942Z,6.08
2023-03-16T15:48:40.091Z,6.06
2023-03-16T15:51:07.741Z,6.15
2023-03-16T15:53:41.460Z,6.15
2023-03-16T15:56:11.233Z,5.99
2023-03-16T15:58:37.738Z,5.75
2023-03-16T16:01:04.442Z,5.62
2023-03-16T16:03:31.019Z,5.59
2023-03-16T16:05:57.504Z,5.56
2023-03-16T16:08:24.026Z,5.49
2023-03-16T16:10:50.459Z,5.47
2023-03-16T16:13:31.177Z,5.32
2023-03-16T16:16:04.318Z,5.29
2023-03-16T16:18:31.434Z,5.22
2023-03-16T16:20:58.222Z,5.18
2023-03-16T16:23:24.776Z,5.08
2023-03-16T16:25:51.783Z,5.04
2023-03-16T16:28:19.508Z,5.08
2023-03-16T16:30:46.025Z,5.02
2023-03-16T16:33:24.899Z,4.88
2023-03-16T16:35:52.081Z,4.84
2023-03-16T16:38:18.598Z,4.74
2023-03-16T16:40:45.008Z,4.68
2023-03-16T16:43:20.623Z,4.63
2023-03-16T16:45:47.468Z,4.51
2023-03-16T16:48:20.931Z,4.50
2023-03-16T16:50:47.483Z,4.38
2023-03-16T16:53:16.721Z,4.36
2023-03-16T16:55:43.121Z,4.26
2023-03-16T16:58:18.520Z,4.11
2023-03-16T17:00:54.813Z,3.99
2023-03-16T17:03:22.795Z,3.88
2023-03-16T17:05:49.186Z,3.91
2023-03-16T17:08:16.826Z,3.79
2023-03-16T17:10:43.320Z,3.68
2023-03-16T17:13:17.909Z,3.55
2023-03-16T17:15:44.505Z,3.44
2023-03-16T17:18:11.255Z,3.25
2023-03-16T17:20:37.648Z,3.28
2023-03-16T17:23:04.831Z,3.15
2023-03-16T17:25:41.885Z,3.00
2023-03-16T17:28:08.378Z,2.95
2023-03-16T17:30:34.932Z,2.91
2023-03-16T17:33:04.834Z,2.83
2023-03-16T17:35:31.776Z,2.79
2023-03-16T17:37:58.449Z,2.63
2023-03-16T17:40:24.899Z,2.33
2023-03-16T17:42:51.360Z,2.20
2023-03-16T17:45:20.057Z,1.91
2023-03-16T17:47:46.611Z,1.74
2023-03-16T17:50:23.555Z,1.51
2023-03-16T17:52:50.605Z,1.36
2023-03-16T17:55:17.236Z,1.18
2023-03-16T17:57:43.707Z,1.26
2023-03-16T18:00:24.318Z,1.18
2023-03-16T18:02:51.792Z,1.07
2023-03-16T18:05:19.106Z,1.00
2023-03-16T18:07:45.873Z,0.82
2023-03-16T18:10:19.890Z,0.69
2023-03-16T18:12:46.311Z,0.67
2023-03-16T18:15:16.292Z,0.61
2023-03-16T18:17:42.742Z,0.50
2023-03-16T18:20:22.395Z,0.44
2023-03-16T18:22:49.043Z,0.31
2023-03-16T18:25:25.023Z,0.32
2023-03-16T18:27:51.381Z,0.18
2023-03-16T18:30:18.794Z,0.12
2023-03-16T18:32:45.833Z,0.04
2023-03-16T18:35:15.649Z,-0.06
2023-03-16T18:37:42.084Z,-0.18
2023-03-16T18:40:10.798Z,-0.23
2023-03-16T18:42:37.791Z,-0.25
2023-03-16T18:45:04.504Z,-0.38
2023-03-16T18:47:31.039Z,-0.35
2023-03-16T18:49:57.441Z,-0.35
2023-03-16T18:52:24.742Z,-0.35
2023-03-16T18:54:51.512Z,-0.35
2023-03-16T18:57:25.299Z,-0.27
2023-03-16T18:59:52.770Z,-0.37
2023-03-16T19:02:25.329Z,-0.31
2023-03-16T19:04:52.301Z,-0.35
2023-03-16T19:07:23.142Z,-0.31
2023-03-16T19:09:49.616Z,-0.19
2023-03-16T19:12:17.069Z,0.16
2023-03-16T19:14:43.445Z,0.34
2023-03-16T19:17:09.860Z,0.31
2023-03-16T19:19:36.272Z,0.64
2023-03-16T19:22:05.709Z,1.10
2023-03-16T19:24:34.481Z,0.94
2023-03-16T19:27:01.039Z,1.11
2023-03-16T19:29:33.917Z,1.12
2023-03-16T19:32:00.547Z,1.09
2023-03-16T19:34:27.142Z,1.03
2023-03-16T19:36:53.552Z,0.94
2023-03-16T19:39:20.001Z,0.94
2023-03-16T19:41:47.321Z,1.05
2023-03-16T19:44:17.443Z,0.98
2023-03-16T19:46:44.020Z,0.94
2023-03-16T19:49:28.619Z,1.07
2023-03-16T19:51:55.660Z,0.97
2023-03-16T19:54:22.729Z,1.08
2023-03-16T19:56:49.395Z,1.02
2023-03-16T19:59:15.820Z,1.04
2023-03-16T20:01:42.360Z,1.02
2023-03-16T20:04:17.486Z,0.97
2023-03-16T20:06:44.631Z,0.88
2023-03-16T20:09:11.033Z,0.84
2023-03-16T20:11:37.844Z,0.71
2023-03-16T20:14:04.224Z,0.62
2023-03-16T20:16:34.669Z,0.82
2023-03-16T20:19:02.150Z,0.88
2023-03-16T20:21:28.765Z,0.77
2023-03-16T20:23:55.234Z,0.58
2023-03-16T20:26:28.659Z,0.57
2023-03-16T20:28:55.130Z,0.55
2023-03-16T20:31:24.624Z,0.61
2023-03-16T20:33:51.562Z,0.54
2023-03-16T20:36:18.147Z,0.47
2023-03-16T20:38:44.607Z,0.51
2023-03-16T20:41:16.454Z,0.61
2023-03-16T20:43:42.888Z,0.71
2023-03-16T20:46:10.082Z,0.51
2023-03-16T20:48:36.678Z,0.40
2023-03-16T20:51:03.542Z,0.32
2023-03-16T20:53:29.993Z,0.22
2023-03-16T20:55:56.481Z,0.15
2023-03-16T20:58:23.806Z,0.19
2023-03-16T21:00:50.514Z,0.06
2023-03-16T21:03:21.817Z,0.17
2023-03-16T21:05:48.607Z,0.18
2023-03-16T21:08:15.154Z,0.20
2023-03-16T21:10:42.009Z,0.12
2023-03-16T21:13:14.867Z,-0.02
2023-03-16T21:15:41.266Z,0.19
2023-03-16T21:18:10.425Z,0.03
2023-03-16T21:20:36.788Z,-0.10
2023-03-16T21:23:03.163Z,-0.26
2023-03-16T21:25:34.568Z,0.01
2023-03-16T21:28:02.168Z,0.05
2023-03-16T21:30:29.576Z,-0.12
2023-03-16T21:32:56.117Z,-0.14
2023-03-16T21:35:24.116Z,-0.27
2023-03-16T21:37:50.626Z,-0.35
2023-03-16T21:40:17.760Z,-0.42
2023-03-16T21:42:44.360Z,-0.46
2023-03-16T21:45:10.998Z,-0.55
2023-03-16T21:47:37.419Z,-0.58
2023-03-16T21:50:09.719Z,-0.77
2023-03-16T21:52:36.061Z,-0.81
2023-03-16T21:55:03.336Z,-0.82
2023-03-16T21:57:29.813Z,-0.91
2023-03-16T21:59:56.200Z,-0.91
2023-03-16T22:02:23.393Z,-0.93
2023-03-16T22:04:50.306Z,-0.92
2023-03-16T22:07:16.676Z,-0.91
2023-03-16T22:09:43.106Z,-0.79
2023-03-16T22:12:10.376Z,-0.86
2023-03-16T22:14:36.947Z,-0.93
2023-03-16T22:17:03.542Z,-0.96
2023-03-16T22:19:29.968Z,-0.97
2023-03-16T22:21:56.514Z,-0.87
2023-03-16T22:24:23.709Z,-0.95
2023-03-16T22:26:50.318Z,-1.07
2023-03-16T22:29:27.028Z,-1.09
2023-03-16T22:31:55.988Z,-1.21
2023-03-16T22:34:33.020Z,-1.24
2023-03-16T22:36:59.512Z,-1.15
2023-03-16T22:39:25.951Z,-1.16
2023-03-16T22:41:52.361Z,-1.28
2023-03-16T22:44:22.416Z,-1.34
2023-03-16T22:46:49.128Z,-1.43
2023-03-16T22:49:23.216Z,-1.45
2023-03-16T22:51:49.980Z,-1.43
2023-03-16T22:54:16.843Z,-1.56
2023-03-16T22:56:44.212Z,-1.54
2023-03-16T22:59:14.848Z,-1.53
2023-03-16T23:01:41.970Z,-1.61
2023-03-16T23:04:15.134Z,-1.55
2023-03-16T23:06:41.850Z,-1.66
2023-03-16T23:09:09.526Z,-1.72
2023-03-16T23:11:35.911Z,-1.71
2023-03-16T23:14:02.483Z,-1.77
2023-03-16T23:16:29.897Z,-1.83
2023-03-16T23:18:56.387Z,-1.95
2023-03-16T23:21:23.312Z,-1.87
2023-03-16T23:24:02.599Z,-1.96
2023-03-16T23:26:30.221Z,-1.89
2023-03-16T23:28:57.123Z,-1.93
2023-03-16T23:31:23.839Z,-1.85
2023-03-16T23:33:50.292Z,-1.88
2023-03-16T23:36:16.679Z,-1.98
2023-03-16T23:38:43.189Z,-2.10
2023-03-16T23:41:10.398Z,-2.08
2023-03-16T23:43:37.233Z,-2.07
2023-03-16T23:46:03.670Z,-2.01
2023-03-16T23:48:30.221Z,-1.95
2023-03-16T23:50:56.733Z,-1.93
2023-03-16T23:53:23.222Z,-1.96
2023-03-16T23:55:49.851Z,-1.95
2023-03-16T23:58:16.299Z,-2.08
